createdAt,value
2019-05-03T00:02:12.338Z,93.30
2019-05-03T00:04:42.330Z,93.40
2019-05-03T00:07:11.800Z,92.80
2019-05-03T00:09:42.506Z,93.10
2019-05-03T00:12:12.434Z,92.60
2019-05-03T00:14:42.494Z,92.90
2019-05-03T00:17:11.742Z,93.20
2019-05-03T00:19:42.087Z,93.00
2019-05-03T00:22:12.242Z,92.80
2019-05-03T00:24:42.454Z,93.10
2019-05-03T00:27:12.494Z,93.30
2019-05-03T00:29:41.773Z,93.20
2019-05-03T00:32:12.291Z,93.20
2019-05-03T00:34:46.578Z,93.50
2019-05-03T00:37:16.720Z,93.60
2019-05-03T00:40:02.764Z,93.80
2019-05-03T00:42:31.792Z,93.80
2019-05-03T00:45:02.287Z,94.00
2019-05-03T00:47:32.706Z,94.00
2019-05-03T00:50:02.817Z,94.00
2019-05-03T00:52:31.911Z,93.70
2019-05-03T00:55:02.236Z,93.50
2019-05-03T00:57:32.382Z,93.40
2019-05-03T01:00:02.091Z,93.30
2019-05-03T01:02:31.809Z,93.00
2019-05-03T01:05:02.663Z,93.10
2019-05-03T01:07:31.909Z,93.00
2019-05-03T01:10:02.566Z,93.00
2019-05-03T01:12:32.337Z,93.00
2019-05-03T01:15:02.777Z,92.90
2019-05-03T01:17:32.056Z,92.60
2019-05-03T01:20:02.542Z,92.60
2019-05-03T01:22:32.179Z,92.60
2019-05-03T01:25:02.855Z,92.60
2019-05-03T01:27:32.659Z,92.50
2019-05-03T01:30:02.890Z,92.60
2019-05-03T01:32:32.870Z,92.50
2019-05-03T01:35:03.131Z,92.50
2019-05-03T01:37:31.961Z,92.30
2019-05-03T01:40:02.362Z,92.30
2019-05-03T01:42:32.178Z,92.40
2019-05-03T01:45:01.757Z,92.60
2019-05-03T01:47:41.947Z,92.50
2019-05-03T01:50:15.012Z,92.30
2019-05-03T01:52:45.108Z,92.40
2019-05-03T01:55:15.848Z,92.40
2019-05-03T01:57:43.816Z,92.50
2019-05-03T02:00:14.527Z,92.50
2019-05-03T02:02:53.664Z,92.60
2019-05-03T02:05:39.739Z,92.60
2019-05-03T02:08:09.717Z,92.50
2019-05-03T02:10:38.153Z,92.60
2019-05-03T02:13:06.656Z,92.60
2019-05-03T02:15:35.074Z,92.60
2019-05-03T02:18:03.508Z,92.70
2019-05-03T02:20:32.377Z,92.90
2019-05-03T02:23:02.667Z,92.90
2019-05-03T02:25:32.358Z,92.90
2019-05-03T02:28:01.963Z,93.00
2019-05-03T02:30:33.132Z,92.90
2019-05-03T02:33:03.723Z,92.70
2019-05-03T02:35:33.175Z,92.80
2019-05-03T02:38:03.510Z,92.80
2019-05-03T02:40:33.837Z,93.00
2019-05-03T02:43:06.405Z,93.10
2019-05-03T02:45:36.970Z,93.10
2019-05-03T02:48:09.974Z,93.10
2019-05-03T02:50:38.481Z,93.10
2019-05-03T02:53:06.903Z,93.30
2019-05-03T02:55:36.433Z,93.40
2019-05-03T02:58:05.756Z,93.60
2019-05-03T03:00:59.835Z,93.70
2019-05-03T03:03:29.306Z,93.80
2019-05-03T03:05:59.380Z,93.90
2019-05-03T03:08:33.024Z,93.70
2019-05-03T03:11:06.297Z,93.60
2019-05-03T03:13:37.072Z,93.30
2019-05-03T03:16:08.697Z,93.20
2019-05-03T03:18:39.843Z,93.30
2019-05-03T03:21:12.029Z,93.30
2019-05-03T03:23:58.418Z,93.40
2019-05-03T03:26:37.710Z,93.40
2019-05-03T03:29:07.883Z,93.30
2019-05-03T03:31:39.457Z,93.50
2019-05-03T03:34:10.464Z,93.60
2019-05-03T03:36:59.284Z,93.80
2019-05-03T03:39:18.024Z,94.00
2019-05-03T03:41:47.635Z,94.20
2019-05-03T03:44:18.991Z,94.20
2019-05-03T03:46:49.285Z,94.30
2019-05-03T03:49:19.941Z,94.50
2019-05-03T03:51:53.150Z,94.70
2019-05-03T03:54:22.317Z,94.80
2019-05-03T03:57:03.247Z,95.00
2019-05-03T03:59:26.915Z,95.00
2019-05-03T04:01:55.897Z,95.20
2019-05-03T04:04:26.175Z,95.40
2019-05-03T04:06:58.594Z,95.40
2019-05-03T04:09:25.791Z,95.40
2019-05-03T04:11:56.855Z,95.40
2019-05-03T04:14:27.256Z,95.30
2019-05-03T04:17:15.108Z,95.40
2019-05-03T04:19:47.879Z,95.20
2019-05-03T04:22:16.625Z,95.30
2019-05-03T04:24:45.966Z,95.40
2019-05-03T04:27:22.231Z,95.40
2019-05-03T04:29:45.478Z,95.20
2019-05-03T04:32:15.757Z,95.10
2019-05-03T04:34:45.376Z,95.10
2019-05-03T04:37:16.135Z,95.10
2019-05-03T04:39:45.655Z,95.20
2019-05-03T04:42:16.543Z,95.10
2019-05-03T04:44:45.566Z,95.10
2019-05-03T04:47:15.771Z,95.10
2019-05-03T04:49:46.277Z,95.30
2019-05-03T04:52:16.541Z,95.30
2019-05-03T04:54:46.328Z,95.40
2019-05-03T04:57:16.035Z,95.50
2019-05-03T04:59:45.281Z,95.50
2019-05-03T05:02:15.988Z,95.30
2019-05-03T05:04:46.358Z,95.40
2019-05-03T05:07:15.500Z,95.40
2019-05-03T05:09:45.633Z,95.50
2019-05-03T05:12:16.273Z,95.40
2019-05-03T05:14:45.662Z,95.50
2019-05-03T05:17:16.549Z,95.10
2019-05-03T05:19:49.618Z,95.10
2019-05-03T05:22:19.689Z,95.20
2019-05-03T05:24:48.404Z,95.10
2019-05-03T05:27:21.153Z,95.00
2019-05-03T05:29:49.597Z,95.10
2019-05-03T05:32:18.013Z,95.10
2019-05-03T05:34:46.473Z,95.10
2019-05-03T05:37:14.899Z,95.10
2019-05-03T05:39:44.712Z,95.20
2019-05-03T05:42:14.929Z,95.40
2019-05-03T05:44:45.264Z,94.90
2019-05-03T05:47:27.461Z,93.60
2019-05-03T05:50:04.876Z,92.80
2019-05-03T05:52:34.650Z,92.40
2019-05-03T05:55:25.162Z,92.10
2019-05-03T05:58:10.001Z,91.90
2019-05-03T06:00:40.072Z,91.70
2019-05-03T06:03:08.502Z,91.70
2019-05-03T06:05:36.938Z,91.30
2019-05-03T06:08:09.997Z,91.40
2019-05-03T06:10:40.055Z,91.30
2019-05-03T06:13:23.434Z,91.30
2019-05-03T06:15:54.797Z,91.40
2019-05-03T06:18:41.536Z,91.40
2019-05-03T06:21:11.627Z,91.90
2019-05-03T06:23:41.761Z,91.70
2019-05-03T06:26:27.701Z,92.00
2019-05-03T06:28:56.701Z,92.30
2019-05-03T06:31:29.616Z,92.70
2019-05-03T06:33:58.064Z,93.00
2019-05-03T06:36:26.508Z,93.30
2019-05-03T06:38:54.944Z,92.80
2019-05-03T06:41:25.045Z,92.50
2019-05-03T06:43:55.224Z,92.30
2019-05-03T06:46:41.765Z,92.20
2019-05-03T06:49:10.198Z,92.10
2019-05-03T06:51:40.024Z,92.30
2019-05-03T06:54:08.791Z,92.50
2019-05-03T06:56:37.557Z,92.50
2019-05-03T06:59:07.958Z,91.50
2019-05-03T07:01:50.188Z,91.50
2019-05-03T07:04:24.519Z,91.30
2019-05-03T07:07:11.098Z,91.60
2019-05-03T07:09:41.179Z,91.50
2019-05-03T07:12:10.083Z,91.70
2019-05-03T07:14:38.532Z,91.70
2019-05-03T07:17:06.946Z,91.40
2019-05-03T07:19:35.626Z,91.50
2019-05-03T07:22:04.999Z,91.20
2019-05-03T07:24:38.769Z,90.70
2019-05-03T07:27:05.419Z,90.90
2019-05-03T07:29:36.371Z,90.60
2019-05-03T07:32:05.182Z,90.30
2019-05-03T07:34:35.215Z,90.10
2019-05-03T07:37:05.737Z,89.40
2019-05-03T07:39:34.968Z,89.20
2019-05-03T07:42:05.432Z,89.00
2019-05-03T07:44:34.738Z,90.10
2019-05-03T07:47:04.772Z,90.00
2019-05-03T07:49:35.509Z,89.70
2019-05-03T07:52:05.631Z,88.60
2019-05-03T07:54:34.839Z,89.10
2019-05-03T07:57:05.251Z,89.70
2019-05-03T07:59:35.572Z,90.20
2019-05-03T08:02:05.525Z,90.30
2019-05-03T08:04:35.805Z,90.30
2019-05-03T08:07:04.697Z,90.30
2019-05-03T08:09:34.980Z,90.70
2019-05-03T08:12:05.154Z,90.50
2019-05-03T08:14:35.488Z,90.80
2019-05-03T08:17:05.060Z,90.60
2019-05-03T08:19:35.517Z,90.80
2019-05-03T08:22:04.843Z,90.50
2019-05-03T08:24:34.545Z,89.90
2019-05-03T08:27:04.995Z,89.40
2019-05-03T08:29:35.158Z,89.30
2019-05-03T08:32:24.581Z,89.80
2019-05-03T08:35:12.436Z,87.90
2019-05-03T08:37:42.505Z,87.50
2019-05-03T08:40:11.554Z,86.20
2019-05-03T08:42:39.982Z,85.80
2019-05-03T08:45:08.521Z,85.60
2019-05-03T08:47:37.012Z,85.90
2019-05-03T08:50:06.979Z,86.60
2019-05-03T08:52:35.579Z,85.00
2019-05-03T08:55:05.293Z,85.30
2019-05-03T08:57:35.423Z,86.10
2019-05-03T09:00:07.412Z,85.40
2019-05-03T09:02:35.832Z,83.80
2019-05-03T09:05:06.515Z,83.80
2019-05-03T09:07:35.518Z,83.60
2019-05-03T09:10:12.274Z,84.20
2019-05-03T09:12:56.048Z,83.60
2019-05-03T09:15:25.195Z,83.40
2019-05-03T09:17:55.260Z,81.10
2019-05-03T09:20:25.084Z,81.90
2019-05-03T09:22:54.944Z,80.20
2019-05-03T09:25:24.759Z,79.60
2019-05-03T09:27:55.233Z,80.40
2019-05-03T09:30:25.130Z,80.70
2019-05-03T09:32:55.129Z,80.50
2019-05-03T09:35:30.582Z,79.20
2019-05-03T09:37:55.568Z,80.10
2019-05-03T09:40:24.668Z,80.80
2019-05-03T09:42:55.086Z,80.60
2019-05-03T09:45:24.615Z,79.70
2019-05-03T09:47:55.085Z,79.90
2019-05-03T09:50:24.685Z,80.20
2019-05-03T09:52:55.451Z,80.90
2019-05-03T09:55:25.400Z,80.90
2019-05-03T09:57:55.522Z,78.80
2019-05-03T10:00:24.619Z,78.80
2019-05-03T10:02:54.838Z,79.60
2019-05-03T10:05:25.569Z,80.80
2019-05-03T10:07:53.816Z,80.60
2019-05-03T10:10:24.684Z,81.70
2019-05-03T10:12:52.450Z,80.40
2019-05-03T10:15:33.107Z,77.30
2019-05-03T10:18:01.544Z,75.20
2019-05-03T10:20:30.050Z,73.90
2019-05-03T10:23:00.111Z,74.60
2019-05-03T10:25:28.596Z,74.90
2019-05-03T10:27:57.039Z,75.10
2019-05-03T10:30:26.801Z,76.00
2019-05-03T10:33:15.616Z,73.20
2019-05-03T10:35:45.109Z,71.70
2019-05-03T10:38:15.154Z,72.40
2019-05-03T10:40:45.263Z,70.00
2019-05-03T10:43:13.960Z,69.60
2019-05-03T10:45:42.368Z,70.20
2019-05-03T10:48:10.937Z,70.10
2019-05-03T10:50:40.283Z,67.90
2019-05-03T10:53:10.476Z,68.40
2019-05-03T10:55:39.132Z,68.00
2019-05-03T10:58:19.944Z,68.40
2019-05-03T11:00:53.228Z,68.00
2019-05-03T11:03:20.148Z,67.00
2019-05-03T11:05:48.604Z,67.00
2019-05-03T11:08:17.085Z,67.90
2019-05-03T11:10:45.578Z,68.00
2019-05-03T11:13:15.459Z,68.60
2019-05-03T11:15:44.413Z,69.40
2019-05-03T11:18:14.744Z,69.90
2019-05-03T11:20:45.136Z,69.90
2019-05-03T11:23:14.630Z,70.10
2019-05-03T11:25:45.021Z,71.00
2019-05-03T11:28:24.970Z,68.80
2019-05-03T11:31:01.380Z,67.10
2019-05-03T11:33:31.546Z,67.10
2019-05-03T11:36:01.623Z,64.90
2019-05-03T11:38:34.942Z,64.70
2019-05-03T11:41:04.889Z,66.50
2019-05-03T11:43:35.000Z,66.60
2019-05-03T11:46:03.655Z,65.10
2019-05-03T11:48:32.074Z,65.60
2019-05-03T11:51:00.524Z,65.30
2019-05-03T11:53:28.933Z,62.90
2019-05-03T11:55:57.413Z,61.80
2019-05-03T11:58:27.343Z,62.10
2019-05-03T12:01:13.071Z,60.80
2019-05-03T12:03:38.079Z,59.40
2019-05-03T12:06:06.630Z,59.90
2019-05-03T12:08:35.137Z,59.90
2019-05-03T12:11:05.591Z,59.60
2019-05-03T12:13:33.918Z,59.60
2019-05-03T12:16:11.706Z,60.00
2019-05-03T12:18:48.027Z,61.00
2019-05-03T12:21:05.245Z,61.40
2019-05-03T12:23:36.292Z,60.40
2019-05-03T12:26:09.733Z,59.70
2019-05-03T12:28:35.281Z,58.30
2019-05-03T12:31:04.930Z,58.00
2019-05-03T12:33:35.385Z,57.70
2019-05-03T12:36:05.333Z,57.90
2019-05-03T12:38:34.933Z,58.20
2019-05-03T12:41:05.520Z,58.80
2019-05-03T12:43:33.920Z,58.30
2019-05-03T12:46:02.406Z,59.50
2019-05-03T12:48:30.903Z,59.80
2019-05-03T12:50:59.841Z,59.20
2019-05-03T12:53:28.400Z,58.60
2019-05-03T12:55:56.883Z,58.90
2019-05-03T12:58:26.991Z,59.40
2019-05-03T13:00:59.984Z,59.30
2019-05-03T13:03:30.133Z,57.90
2019-05-03T13:05:58.549Z,58.20
2019-05-03T13:08:31.745Z,58.40
2019-05-03T13:11:00.252Z,57.50
2019-05-03T13:13:28.712Z,57.00
2019-05-03T13:15:57.177Z,56.30
2019-05-03T13:18:25.656Z,57.10
2019-05-03T13:20:55.860Z,57.60
2019-05-03T13:23:25.391Z,55.70
2019-05-03T13:25:54.021Z,57.30
2019-05-03T13:28:22.491Z,56.70
2019-05-03T13:30:50.924Z,56.40
2019-05-03T13:33:19.477Z,54.10
2019-05-03T13:35:47.933Z,52.00
2019-05-03T13:38:16.374Z,53.10
2019-05-03T13:40:45.485Z,53.60
2019-05-03T13:43:15.027Z,53.40
2019-05-03T13:45:45.011Z,53.40
2019-05-03T13:48:15.555Z,53.30
2019-05-03T13:50:44.600Z,53.10
2019-05-03T13:53:13.244Z,52.20
2019-05-03T13:55:41.746Z,52.80
2019-05-03T13:58:10.272Z,52.70
2019-05-03T14:00:38.727Z,51.90
2019-05-03T14:03:07.146Z,52.50
2019-05-03T14:05:35.663Z,52.90
2019-05-03T14:08:05.088Z,52.60
2019-05-03T14:10:35.828Z,52.80
2019-05-03T14:13:05.608Z,53.50
2019-05-03T14:15:34.821Z,52.80
2019-05-03T14:18:05.618Z,51.90
2019-05-03T14:20:54.948Z,50.50
2019-05-03T14:23:56.162Z,49.90
2019-05-03T14:26:24.745Z,50.00
2019-05-03T14:28:54.885Z,50.00
2019-05-03T14:31:25.243Z,48.60
2019-05-03T14:33:55.601Z,49.50
2019-05-03T14:36:25.065Z,48.50
2019-05-03T14:38:54.927Z,49.30
2019-05-03T14:41:25.453Z,50.00
2019-05-03T14:43:55.695Z,50.70
2019-05-03T14:46:32.671Z,50.10
2019-05-03T14:48:54.991Z,51.10
2019-05-03T14:51:25.225Z,51.30
2019-05-03T14:53:54.297Z,51.50
2019-05-03T14:56:28.722Z,51.70
2019-05-03T14:59:07.612Z,51.50
2019-05-03T15:01:37.754Z,51.90
2019-05-03T15:04:06.402Z,52.30
2019-05-03T15:06:35.446Z,51.10
2019-05-03T15:09:05.804Z,51.00
2019-05-03T15:11:34.573Z,51.10
2019-05-03T15:14:05.490Z,51.50
2019-05-03T15:16:34.382Z,51.20
2019-05-03T15:19:02.859Z,51.30
2019-05-03T15:21:31.301Z,51.60
2019-05-03T15:23:59.834Z,51.80
2019-05-03T15:26:28.280Z,52.20
2019-05-03T15:28:56.705Z,53.20
2019-05-03T15:31:25.240Z,53.60
2019-05-03T15:33:55.495Z,54.00
2019-05-03T15:36:23.996Z,54.50
2019-05-03T15:38:52.454Z,54.50
2019-05-03T15:41:20.887Z,55.30
2019-05-03T15:43:51.148Z,55.10
2019-05-03T15:46:33.312Z,55.10
2019-05-03T15:49:04.577Z,55.50
2019-05-03T15:51:33.264Z,56.10
2019-05-03T15:54:01.724Z,55.90
2019-05-03T15:56:30.142Z,55.50
2019-05-03T15:58:58.969Z,55.40
2019-05-03T16:01:27.471Z,56.50
2019-05-03T16:03:55.948Z,56.50
2019-05-03T16:06:24.845Z,56.90
2019-05-03T16:08:55.211Z,56.80
2019-05-03T16:11:25.300Z,57.10
2019-05-03T16:13:55.354Z,56.60
2019-05-03T16:16:24.822Z,55.80
2019-05-03T16:18:53.530Z,55.60
2019-05-03T16:21:22.020Z,56.20
2019-05-03T16:23:50.451Z,57.10
2019-05-03T16:26:18.912Z,57.40
2019-05-03T16:28:48.989Z,57.60
2019-05-03T16:31:19.164Z,57.60
2019-05-03T16:33:47.609Z,57.80
2019-05-03T16:36:16.153Z,58.00
2019-05-03T16:38:45.047Z,58.90
2019-05-03T16:41:17.513Z,59.20
2019-05-03T16:43:45.601Z,59.50
2019-05-03T16:46:14.553Z,60.10
2019-05-03T16:48:44.876Z,60.80
2019-05-03T16:51:15.133Z,61.30
2019-05-03T16:53:44.472Z,61.30
2019-05-03T16:56:16.544Z,60.90
2019-05-03T16:58:44.636Z,61.40
2019-05-03T17:01:15.955Z,61.60
2019-05-03T17:03:45.692Z,61.60
2019-05-03T17:06:34.880Z,61.40
2019-05-03T17:09:06.070Z,61.80
2019-05-03T17:11:34.764Z,62.40
2019-05-03T17:14:05.034Z,62.40
2019-05-03T17:16:34.461Z,63.00
2019-05-03T17:19:02.942Z,62.80
2019-05-03T17:21:31.466Z,62.40
2019-05-03T17:23:59.959Z,62.30
2019-05-03T17:26:28.496Z,62.10
2019-05-03T17:28:56.923Z,61.10
2019-05-03T17:31:25.473Z,61.60
2019-05-03T17:33:56.682Z,62.20
2019-05-03T17:36:25.081Z,62.60
2019-05-03T17:38:55.224Z,61.90
2019-05-03T17:41:25.675Z,61.00
2019-05-03T17:43:55.818Z,61.10
2019-05-03T17:46:25.512Z,61.30
2019-05-03T17:48:54.756Z,61.50
2019-05-03T17:51:42.588Z,60.70
2019-05-03T17:54:14.487Z,60.20
2019-05-03T17:56:56.509Z,59.90
2019-05-03T17:59:38.451Z,60.10
2019-05-03T18:02:23.681Z,59.20
2019-05-03T18:05:10.304Z,59.30
2019-05-03T18:07:45.272Z,59.40
2019-05-03T18:10:15.158Z,59.90
2019-05-03T18:12:45.262Z,60.30
2019-05-03T18:15:14.757Z,60.10
2019-05-03T18:17:44.482Z,60.30
2019-05-03T18:20:14.946Z,61.10
2019-05-03T18:22:43.300Z,59.00
2019-05-03T18:25:11.936Z,59.00
2019-05-03T18:27:40.446Z,59.30
2019-05-03T18:30:09.142Z,59.00
2019-05-03T18:32:37.586Z,59.20
2019-05-03T18:35:06.622Z,59.20
2019-05-03T18:37:35.149Z,60.00
2019-05-03T18:40:05.038Z,61.10
2019-05-03T18:42:35.337Z,62.50
2019-05-03T18:45:07.010Z,62.10
2019-05-03T18:47:35.481Z,62.60
2019-05-03T18:50:06.012Z,62.60
2019-05-03T18:52:34.561Z,63.10
2019-05-03T18:55:04.617Z,63.40
2019-05-03T18:57:33.188Z,64.10
2019-05-03T19:00:01.786Z,64.20
2019-05-03T19:02:30.268Z,65.00
2019-05-03T19:04:58.808Z,65.50
2019-05-03T19:07:40.641Z,65.40
2019-05-03T19:10:16.984Z,67.10
2019-05-03T19:12:49.871Z,67.00
2019-05-03T19:15:18.415Z,68.00
2019-05-03T19:17:48.482Z,68.00
2019-05-03T19:20:18.110Z,69.50
2019-05-03T19:22:46.603Z,68.50
2019-05-03T19:25:15.122Z,69.70
2019-05-03T19:27:45.125Z,70.50
2019-05-03T19:30:14.853Z,71.10
2019-05-03T19:32:45.045Z,70.90
2019-05-03T19:35:15.559Z,70.80
2019-05-03T19:37:46.363Z,72.00
2019-05-03T19:40:14.714Z,71.60
2019-05-03T19:42:44.761Z,72.40
2019-05-03T19:45:15.171Z,72.00
2019-05-03T19:47:44.731Z,71.80
2019-05-03T19:50:15.524Z,71.90
2019-05-03T19:52:51.269Z,71.60
2019-05-03T19:55:19.714Z,71.90
2019-05-03T19:57:48.152Z,73.20
2019-05-03T20:00:17.269Z,72.80
2019-05-03T20:02:47.327Z,73.10
2019-05-03T20:05:20.225Z,73.60
2019-05-03T20:08:08.175Z,74.10
2019-05-03T20:10:36.724Z,73.70
2019-05-03T20:13:05.155Z,74.10
2019-05-03T20:15:33.678Z,74.20
2019-05-03T20:18:02.174Z,75.30
2019-05-03T20:20:30.647Z,74.90
2019-05-03T20:22:59.284Z,74.80
2019-05-03T20:25:27.691Z,75.20
2019-05-03T20:27:56.175Z,75.60
2019-05-03T20:30:25.451Z,75.70
2019-05-03T20:32:55.536Z,76.00
2019-05-03T20:35:25.181Z,75.00
2019-05-03T20:37:55.387Z,74.80
2019-05-03T20:40:25.620Z,74.00
2019-05-03T20:42:58.881Z,74.70
2019-05-03T20:45:44.569Z,75.20
2019-05-03T20:48:14.725Z,75.20
2019-05-03T20:50:44.748Z,75.40
2019-05-03T20:53:13.313Z,75.60
2019-05-03T20:55:41.735Z,76.60
2019-05-03T20:58:11.456Z,76.20
2019-05-03T21:00:40.026Z,76.00
2019-05-03T21:03:08.481Z,75.70
2019-05-03T21:05:37.447Z,75.00
2019-05-03T21:08:06.130Z,75.20
2019-05-03T21:10:34.587Z,76.00
2019-05-03T21:13:05.284Z,76.70
2019-05-03T21:15:35.501Z,76.80
2019-05-03T21:18:05.738Z,76.50
2019-05-03T21:20:38.521Z,77.20
2019-05-03T21:23:14.767Z,76.70
2019-05-03T21:26:03.624Z,77.00
2019-05-03T21:28:16.154Z,77.30
2019-05-03T21:30:45.445Z,77.30
2019-05-03T21:33:15.657Z,77.50
2019-05-03T21:35:45.226Z,77.50
2019-05-03T21:38:13.873Z,78.00
2019-05-03T21:40:42.321Z,78.80
2019-05-03T21:43:10.780Z,79.00
2019-05-03T21:45:40.847Z,79.70
2019-05-03T21:48:14.642Z,79.10
2019-05-03T21:50:44.646Z,79.00
2019-05-03T21:53:14.771Z,79.20
2019-05-03T21:55:44.785Z,78.20
2019-05-03T21:58:16.030Z,78.20
2019-05-03T22:00:45.482Z,77.30
2019-05-03T22:03:14.592Z,76.70
2019-05-03T22:05:54.410Z,76.20
2019-05-03T22:08:13.489Z,75.90
2019-05-03T22:10:41.966Z,75.90
2019-05-03T22:13:10.672Z,75.60
2019-05-03T22:15:46.836Z,75.60
2019-05-03T22:18:16.898Z,75.70
2019-05-03T22:20:49.839Z,75.70
2019-05-03T22:23:31.465Z,75.40
2019-05-03T22:26:01.576Z,75.30
2019-05-03T22:28:30.016Z,75.00
2019-05-03T22:30:58.454Z,74.40
2019-05-03T22:33:26.865Z,74.20
2019-05-03T22:36:07.829Z,73.40
2019-05-03T22:38:25.519Z,72.90
2019-05-03T22:40:55.323Z,72.50
2019-05-03T22:43:25.349Z,72.40
2019-05-03T22:45:54.801Z,73.20
2019-05-03T22:48:25.097Z,73.20
2019-05-03T22:50:55.586Z,73.30
2019-05-03T22:53:25.357Z,73.20
2019-05-03T22:55:54.339Z,71.90
2019-05-03T22:58:24.723Z,71.90
2019-05-03T23:00:54.935Z,72.00
2019-05-03T23:03:24.873Z,71.80
2019-05-03T23:05:54.800Z,71.50
2019-05-03T23:08:25.154Z,71.30
2019-05-03T23:10:54.704Z,71.50
2019-05-03T23:13:24.897Z,73.00
2019-05-03T23:15:54.656Z,72.80
2019-05-03T23:18:24.622Z,73.60
2019-05-03T23:21:06.728Z,72.70
2019-05-03T23:23:54.827Z,73.30
2019-05-03T23:26:25.268Z,72.00
2019-05-03T23:28:55.121Z,72.80
2019-05-03T23:31:25.125Z,73.70
2019-05-03T23:33:54.482Z,73.80
2019-05-03T23:36:32.684Z,72.70
2019-05-03T23:38:54.650Z,71.90
2019-05-03T23:41:24.541Z,72.00
2019-05-03T23:43:53.217Z,72.10
2019-05-03T23:46:25.198Z,71.80
2019-05-03T23:48:53.416Z,72.10
2019-05-03T23:51:39.697Z,72.50
2019-05-03T23:54:08.137Z,72.50
2019-05-03T23:56:36.724Z,74.00
2019-05-03T23:59:05.617Z,73.90
